sensor_id;sensor_type;location;lat;lon;timestamp;pressure;altitude;pressure_sealevel;temperature;humidity
61086;BME280;46967;48.876;2.136;2023-04-09T00:02:09;102192.84;;;7.73;76.88
61086;BME280;46967;48.876;2.136;2023-04-09T00:04:34;102186.75;;;7.61;77.00
61086;BME280;46967;48.876;2.136;2023-04-09T00:07:00;102192.81;;;7.68;76.34
61086;BME280;46967;48.876;2.136;2023-04-09T00:09:25;102181.59;;;7.61;76.52
61086;BME280;46967;48.876;2.136;2023-04-09T00:11:50;102178.13;;;7.61;76.70
61086;BME280;46967;48.876;2.136;2023-04-09T00:14:16;102179.88;;;7.62;76.28
61086;BME280;46967;48.876;2.136;2023-04-09T00:16:41;102171.25;;;7.60;76.40
61086;BME280;46967;48.876;2.136;2023-04-09T00:19:07;102167.78;;;7.58;76.58
61086;BME280;46967;48.876;2.136;2023-04-09T00:21:32;102167.78;;;7.58;76.36
61086;BME280;46967;48.876;2.136;2023-04-09T00:23:57;102179.81;;;7.53;76.86
61086;BME280;46967;48.876;2.136;2023-04-09T00:26:23;102171.22;;;7.54;76.89
61086;BME280;46967;48.876;2.136;2023-04-09T00:28:48;102172.94;;;7.52;76.91
61086;BME280;46967;48.876;2.136;2023-04-09T00:31:13;102176.34;;;7.46;77.42
61086;BME280;46967;48.876;2.136;2023-04-09T00:33:39;102175.47;;;7.41;77.38
61086;BME280;46967;48.876;2.136;2023-04-09T00:36:05;102178.00;;;7.33;77.85
61086;BME280;46967;48.876;2.136;2023-04-09T00:38:30;102178.00;;;7.32;78.04
61086;BME280;46967;48.876;2.136;2023-04-09T00:40:56;102177.09;;;7.25;78.04
61086;BME280;46967;48.876;2.136;2023-04-09T00:43:21;102168.50;;;7.28;77.39
61086;BME280;46967;48.876;2.136;2023-04-09T00:45:47;102174.50;;;7.23;77.58
61086;BME280;46967;48.876;2.136;2023-04-09T00:48:12;102167.63;;;7.24;77.35
61086;BME280;46967;48.876;2.136;2023-04-09T00:50:38;102171.00;;;7.17;78.09
61086;BME280;46967;48.876;2.136;2023-04-09T00:53:04;102165.00;;;7.18;77.99
61086;BME280;46967;48.876;2.136;2023-04-09T00:55:30;102163.25;;;7.17;77.44
61086;BME280;46967;48.876;2.136;2023-04-09T00:57:56;102157.25;;;7.16;77.48
61086;BME280;46967;48.876;2.136;2023-04-09T01:00:21;102158.09;;;7.12;77.96
61086;BME280;46967;48.876;2.136;2023-04-09T01:02:47;102162.38;;;7.12;78.10
61086;BME280;46967;48.876;2.136;2023-04-09T01:05:13;102158.91;;;7.08;78.39
61086;BME280;46967;48.876;2.136;2023-04-09T01:10:53;102158.88;;;7.03;78.13
61086;BME280;46967;48.876;2.136;2023-04-09T01:16:20;102163.16;;;6.98;78.47
61086;BME280;46967;48.876;2.136;2023-04-09T01:18:57;102152.81;;;6.95;78.38
61086;BME280;46967;48.876;2.136;2023-04-09T01:21:26;102159.63;;;6.85;79.10
61086;BME280;46967;48.876;2.136;2023-04-09T01:26:57;102157.84;;;6.77;79.24
61086;BME280;46967;48.876;2.136;2023-04-09T01:29:26;102156.06;;;6.69;79.49
61086;BME280;46967;48.876;2.136;2023-04-09T01:31:55;102156.09;;;6.71;79.76
61086;BME280;46967;48.876;2.136;2023-04-09T01:34:21;102147.44;;;6.67;79.77
61086;BME280;46967;48.876;2.136;2023-04-09T01:36:51;102154.38;;;6.73;79.27
61086;BME280;46967;48.876;2.136;2023-04-09T01:39:18;102156.97;;;6.75;79.11
61086;BME280;46967;48.876;2.136;2023-04-09T01:41:45;102141.47;;;6.73;78.97
61086;BME280;46967;48.876;2.136;2023-04-09T01:44:11;102149.22;;;6.71;79.24
61086;BME280;46967;48.876;2.136;2023-04-09T01:46:38;102144.03;;;6.70;79.07
61086;BME280;46967;48.876;2.136;2023-04-09T01:49:04;102145.72;;;6.65;79.46
61086;BME280;46967;48.876;2.136;2023-04-09T01:51:31;102137.09;;;6.63;79.30
61086;BME280;46967;48.876;2.136;2023-04-09T01:53:58;102136.22;;;6.62;79.37
61086;BME280;46967;48.876;2.136;2023-04-09T01:56:24;102142.25;;;6.63;79.33
61086;BME280;46967;48.876;2.136;2023-04-09T01:58:49;102135.34;;;6.59;79.30
61086;BME280;46967;48.876;2.136;2023-04-09T02:03:55;102130.19;;;6.57;79.42
61086;BME280;46967;48.876;2.136;2023-04-09T02:08:54;102136.16;;;6.53;79.82
61086;BME280;46967;48.876;2.136;2023-04-09T02:11:22;102133.59;;;6.55;79.58
61086;BME280;46967;48.876;2.136;2023-04-09T02:13:48;102132.69;;;6.49;79.97
61086;BME280;46967;48.876;2.136;2023-04-09T02:16:14;102130.09;;;6.46;79.98
61086;BME280;46967;48.876;2.136;2023-04-09T02:18:40;102121.47;;;6.44;80.25
61086;BME280;46967;48.876;2.136;2023-04-09T02:21:06;102120.56;;;6.41;80.02
61086;BME280;46967;48.876;2.136;2023-04-09T02:23:31;102127.44;;;6.39;80.22
61086;BME280;46967;48.876;2.136;2023-04-09T02:25:58;102121.41;;;6.37;79.84
61086;BME280;46967;48.876;2.136;2023-04-09T02:28:23;102117.09;;;6.35;79.89
61086;BME280;46967;48.876;2.136;2023-04-09T02:30:49;102119.59;;;6.29;80.23
61086;BME280;46967;48.876;2.136;2023-04-09T02:33:14;102116.16;;;6.26;80.78
61086;BME280;46967;48.876;2.136;2023-04-09T02:35:40;102122.16;;;6.26;80.91
61086;BME280;46967;48.876;2.136;2023-04-09T02:38:05;102116.13;;;6.24;81.04
61086;BME280;46967;48.876;2.136;2023-04-09T02:40:32;102112.66;;;6.21;80.75
61086;BME280;46967;48.876;2.136;2023-04-09T02:42:57;102104.94;;;6.21;81.02
61086;BME280;46967;48.876;2.136;2023-04-09T02:45:23;102106.66;;;6.20;81.22
61086;BME280;46967;48.876;2.136;2023-04-09T02:47:48;102110.91;;;6.16;81.01
61086;BME280;46967;48.876;2.136;2023-04-09T02:50:14;102105.75;;;6.16;80.79
61086;BME280;46967;48.876;2.136;2023-04-09T02:52:39;102104.03;;;6.14;80.56
61086;BME280;46967;48.876;2.136;2023-04-09T02:55:05;102096.25;;;6.11;80.75
61086;BME280;46967;48.876;2.136;2023-04-09T02:57:30;102098.81;;;6.08;80.93
61086;BME280;46967;48.876;2.136;2023-04-09T02:59:57;102089.34;;;6.08;81.06
61086;BME280;46967;48.876;2.136;2023-04-09T03:02:22;102095.34;;;6.07;80.76
61086;BME280;46967;48.876;2.136;2023-04-09T03:04:48;102086.75;;;6.05;80.96
61086;BME280;46967;48.876;2.136;2023-04-09T03:07:13;102091.00;;;6.02;80.88
61086;BME280;46967;48.876;2.136;2023-04-09T03:09:38;102091.84;;;5.99;80.89
61086;BME280;46967;48.876;2.136;2023-04-09T03:12:04;102090.16;;;6.01;80.86
61086;BME280;46967;48.876;2.136;2023-04-09T03:14:29;102084.03;;;5.94;81.20
61086;BME280;46967;48.876;2.136;2023-04-09T03:16:54;102092.63;;;5.93;81.48
61086;BME280;46967;48.876;2.136;2023-04-09T03:19:20;102094.28;;;5.90;81.79
61086;BME280;46967;48.876;2.136;2023-04-09T03:21:45;102090.03;;;5.92;81.53
61086;BME280;46967;48.876;2.136;2023-04-09T03:24:13;102094.31;;;5.91;81.21
61086;BME280;46967;48.876;2.136;2023-04-09T03:26:38;102089.09;;;5.87;81.54
61086;BME280;46967;48.876;2.136;2023-04-09T03:29:04;102091.66;;;5.85;81.42
61086;BME280;46967;48.876;2.136;2023-04-09T03:31:30;102087.34;;;5.81;81.87
61086;BME280;46967;48.876;2.136;2023-04-09T03:33:56;102084.72;;;5.76;81.49
61086;BME280;46967;48.876;2.136;2023-04-09T03:36:21;102080.34;;;5.71;81.82
61086;BME280;46967;48.876;2.136;2023-04-09T03:38:47;102078.69;;;5.73;81.09
61086;BME280;46967;48.876;2.136;2023-04-09T03:41:13;102073.53;;;5.73;80.89
61086;BME280;46967;48.876;2.136;2023-04-09T03:43:38;102070.03;;;5.69;80.77
61086;BME280;46967;48.876;2.136;2023-04-09T03:46:14;102066.53;;;5.62;81.06
61086;BME280;46967;48.876;2.136;2023-04-09T03:48:40;102069.09;;;5.61;81.71
61086;BME280;46967;48.876;2.136;2023-04-09T03:51:09;102066.47;;;5.56;81.75
61086;BME280;46967;48.876;2.136;2023-04-09T03:53:35;102064.72;;;5.54;81.75
61086;BME280;46967;48.876;2.136;2023-04-09T03:56:00;102059.59;;;5.54;81.70
61086;BME280;46967;48.876;2.136;2023-04-09T03:58:27;102063.03;;;5.56;81.42
61086;BME280;46967;48.876;2.136;2023-04-09T04:00:52;102058.72;;;5.56;81.60
61086;BME280;46967;48.876;2.136;2023-04-09T04:03:17;102051.84;;;5.54;81.21
61086;BME280;46967;48.876;2.136;2023-04-09T04:05:43;102058.66;;;5.50;81.58
61086;BME280;46967;48.876;2.136;2023-04-09T04:08:08;102056.03;;;5.45;81.64
61086;BME280;46967;48.876;2.136;2023-04-09T04:10:33;102053.44;;;5.41;81.95
61086;BME280;46967;48.876;2.136;2023-04-09T04:12:59;102058.59;;;5.41;82.11
61086;BME280;46967;48.876;2.136;2023-04-09T04:15:26;102062.78;;;5.36;82.22
61086;BME280;46967;48.876;2.136;2023-04-09T04:17:51;102054.97;;;5.30;81.93
61086;BME280;46967;48.876;2.136;2023-04-09T04:20:17;102051.53;;;5.28;81.91
61086;BME280;46967;48.876;2.136;2023-04-09T04:22:42;102056.69;;;5.28;81.92
61086;BME280;46967;48.876;2.136;2023-04-09T04:25:08;102057.56;;;5.31;81.80
61086;BME280;46967;48.876;2.136;2023-04-09T04:27:33;102066.16;;;5.29;81.42
61086;BME280;46967;48.876;2.136;2023-04-09T04:29:59;102061.03;;;5.30;81.32
61086;BME280;46967;48.876;2.136;2023-04-09T04:32:26;102055.78;;;5.24;81.24
61086;BME280;46967;48.876;2.136;2023-04-09T04:34:51;102068.63;;;5.21;81.64
61086;BME280;46967;48.876;2.136;2023-04-09T04:37:16;102068.56;;;5.16;81.61
61086;BME280;46967;48.876;2.136;2023-04-09T04:39:42;102063.41;;;5.15;81.88
61086;BME280;46967;48.876;2.136;2023-04-09T04:42:07;102062.47;;;5.08;82.42
61086;BME280;46967;48.876;2.136;2023-04-09T04:44:35;102070.22;;;5.11;81.87
61086;BME280;46967;48.876;2.136;2023-04-09T04:47:01;102062.47;;;5.10;81.99
61086;BME280;46967;48.876;2.136;2023-04-09T04:49:37;102071.88;;;5.09;81.96
61086;BME280;46967;48.876;2.136;2023-04-09T04:52:05;102081.31;;;5.07;82.16
61086;BME280;46967;48.876;2.136;2023-04-09T04:54:32;102073.56;;;5.05;82.06
61086;BME280;46967;48.876;2.136;2023-04-09T04:56:58;102074.41;;;5.03;81.93
61086;BME280;46967;48.876;2.136;2023-04-09T04:59:25;102076.94;;;5.00;81.98
61086;BME280;46967;48.876;2.136;2023-04-09T05:01:50;102076.91;;;4.97;82.04
61086;BME280;46967;48.876;2.136;2023-04-09T05:04:15;102081.19;;;4.98;81.99
61086;BME280;46967;48.876;2.136;2023-04-09T05:06:41;102088.03;;;4.97;81.84
61086;BME280;46967;48.876;2.136;2023-04-09T05:09:06;102082.00;;;4.94;81.82
61086;BME280;46967;48.876;2.136;2023-04-09T05:11:31;102078.50;;;4.92;81.40
61086;BME280;46967;48.876;2.136;2023-04-09T05:13:57;102087.94;;;4.91;81.46
61086;BME280;46967;48.876;2.136;2023-04-09T05:16:22;102088.75;;;4.85;81.24
61086;BME280;46967;48.876;2.136;2023-04-09T05:18:47;102098.19;;;4.88;81.23
61086;BME280;46967;48.876;2.136;2023-04-09T05:21:13;102093.03;;;4.86;80.89
61086;BME280;46967;48.876;2.136;2023-04-09T05:23:38;102096.50;;;4.90;80.63
61086;BME280;46967;48.876;2.136;2023-04-09T05:26:03;102095.66;;;4.91;81.02
61086;BME280;46967;48.876;2.136;2023-04-09T05:28:29;102102.50;;;4.89;81.64
61086;BME280;46967;48.876;2.136;2023-04-09T05:30:54;102094.84;;;4.92;81.64
61086;BME280;46967;48.876;2.136;2023-04-09T05:33:20;102094.84;;;4.92;81.78
61086;BME280;46967;48.876;2.136;2023-04-09T05:35:45;102106.88;;;4.95;82.53
61086;BME280;46967;48.876;2.136;2023-04-09T05:38:11;102098.34;;;4.97;82.78
61086;BME280;46967;48.876;2.136;2023-04-09T05:40:38;102097.47;;;4.97;83.00
61086;BME280;46967;48.876;2.136;2023-04-09T05:43:03;102096.53;;;4.92;82.66
61086;BME280;46967;48.876;2.136;2023-04-09T05:45:29;102105.16;;;4.94;83.48
61086;BME280;46967;48.876;2.136;2023-04-09T05:47:54;102107.78;;;4.97;82.71
61086;BME280;46967;48.876;2.136;2023-04-09T05:50:20;102102.66;;;4.98;82.59
61086;BME280;46967;48.876;2.136;2023-04-09T05:52:46;102097.53;;;5.01;82.96
61086;BME280;46967;48.876;2.136;2023-04-09T05:55:11;102107.03;;;5.05;82.96
61086;BME280;46967;48.876;2.136;2023-04-09T05:57:36;102101.91;;;5.08;83.12
61086;BME280;46967;48.876;2.136;2023-04-09T06:00:02;102115.66;;;5.11;82.92
61086;BME280;46967;48.876;2.136;2023-04-09T06:02:27;102108.84;;;5.13;83.29
61086;BME280;46967;48.876;2.136;2023-04-09T06:04:53;102116.66;;;5.19;83.20
61086;BME280;46967;48.876;2.136;2023-04-09T06:07:18;102109.84;;;5.22;83.28
61086;BME280;46967;48.876;2.136;2023-04-09T06:09:43;102109.91;;;5.29;83.61
61086;BME280;46967;48.876;2.136;2023-04-09T06:12:11;102121.97;;;5.33;84.20
61086;BME280;46967;48.876;2.136;2023-04-09T06:14:36;102116.88;;;5.37;84.18
61086;BME280;46967;48.876;2.136;2023-04-09T06:17:01;102116.03;;;5.38;84.55
61086;BME280;46967;48.876;2.136;2023-04-09T06:19:27;102116.19;;;5.49;84.12
61086;BME280;46967;48.876;2.136;2023-04-09T06:21:53;102113.72;;;5.58;83.99
61086;BME280;46967;48.876;2.136;2023-04-09T06:24:18;102120.66;;;5.66;83.93
61086;BME280;46967;48.876;2.136;2023-04-09T06:26:43;102115.63;;;5.75;84.33
61086;BME280;46967;48.876;2.136;2023-04-09T06:29:09;102110.53;;;5.83;84.37
61086;BME280;46967;48.876;2.136;2023-04-09T06:31:34;102120.06;;;5.90;84.56
61086;BME280;46967;48.876;2.136;2023-04-09T06:33:59;102120.19;;;5.99;84.84
61086;BME280;46967;48.876;2.136;2023-04-09T06:36:25;102117.69;;;6.07;85.08
61086;BME280;46967;48.876;2.136;2023-04-09T06:38:51;102124.66;;;6.15;84.85
61086;BME280;46967;48.876;2.136;2023-04-09T06:41:20;102119.56;;;6.25;84.77
61086;BME280;46967;48.876;2.136;2023-04-09T06:43:45;102113.63;;;6.32;84.28
61086;BME280;46967;48.876;2.136;2023-04-09T06:46:10;102120.56;;;6.41;83.94
61086;BME280;46967;48.876;2.136;2023-04-09T06:48:37;102124.94;;;6.46;84.09
61086;BME280;46967;48.876;2.136;2023-04-09T06:51:03;102118.94;;;6.50;83.90
61086;BME280;46967;48.876;2.136;2023-04-09T06:53:28;102116.41;;;6.60;83.60
61086;BME280;46967;48.876;2.136;2023-04-09T06:55:53;102124.22;;;6.67;83.26
61086;BME280;46967;48.876;2.136;2023-04-09T06:58:19;102122.59;;;6.76;83.03
61086;BME280;46967;48.876;2.136;2023-04-09T07:00:45;102120.03;;;6.83;82.87
61086;BME280;46967;48.876;2.136;2023-04-09T07:03:10;102125.22;;;6.89;82.76
61086;BME280;46967;48.876;2.136;2023-04-09T07:05:35;102120.09;;;6.94;82.86
61086;BME280;46967;48.876;2.136;2023-04-09T07:08:01;102119.31;;;7.03;82.75
61086;BME280;46967;48.876;2.136;2023-04-09T07:10:26;102121.94;;;7.11;82.37
61086;BME280;46967;48.876;2.136;2023-04-09T07:12:51;102124.53;;;7.17;82.22
61086;BME280;46967;48.876;2.136;2023-04-09T07:15:17;102121.16;;;7.25;81.89
61086;BME280;46967;48.876;2.136;2023-04-09T07:17:42;102120.31;;;7.30;81.55
61086;BME280;46967;48.876;2.136;2023-04-09T07:20:08;102116.91;;;7.41;81.01
61086;BME280;46967;48.876;2.136;2023-04-09T07:22:34;102119.53;;;7.49;81.67
61086;BME280;46967;48.876;2.136;2023-04-09T07:25:00;102117.84;;;7.57;80.87
61086;BME280;46967;48.876;2.136;2023-04-09T07:27:26;102115.28;;;7.67;80.77
61086;BME280;46967;48.876;2.136;2023-04-09T07:29:55;102108.44;;;7.81;80.16
61086;BME280;46967;48.876;2.136;2023-04-09T07:32:22;102109.31;;;7.89;80.26
61086;BME280;46967;48.876;2.136;2023-04-09T07:34:47;102110.19;;;7.97;80.44
61086;BME280;46967;48.876;2.136;2023-04-09T07:37:12;102114.50;;;8.00;79.50
61086;BME280;46967;48.876;2.136;2023-04-09T07:39:38;102112.78;;;8.08;79.37
61086;BME280;46967;48.876;2.136;2023-04-09T07:42:04;102107.63;;;8.13;79.42
61086;BME280;46967;48.876;2.136;2023-04-09T07:44:36;102116.25;;;8.16;79.37
61086;BME280;46967;48.876;2.136;2023-04-09T07:47:03;102114.53;;;8.28;79.45
61086;BME280;46967;48.876;2.136;2023-04-09T07:49:28;102115.41;;;8.41;78.91
61086;BME280;46967;48.876;2.136;2023-04-09T07:51:54;102105.97;;;8.54;78.63
61086;BME280;46967;48.876;2.136;2023-04-09T07:54:19;102117.16;;;8.66;77.75
61086;BME280;46967;48.876;2.136;2023-04-09T07:56:45;102111.09;;;8.78;77.52
61086;BME280;46967;48.876;2.136;2023-04-09T07:59:11;102107.63;;;8.87;76.85
61086;BME280;46967;48.876;2.136;2023-04-09T08:01:36;102103.31;;;8.97;76.50
61086;BME280;46967;48.876;2.136;2023-04-09T08:04:01;102105.88;;;9.06;76.41
61086;BME280;46967;48.876;2.136;2023-04-09T08:06:27;102115.31;;;9.13;76.23
61086;BME280;46967;48.876;2.136;2023-04-09T08:08:53;102105.84;;;9.21;76.03
61086;BME280;46967;48.876;2.136;2023-04-09T08:11:18;102104.88;;;9.39;74.99
61086;BME280;46967;48.876;2.136;2023-04-09T08:13:52;102103.13;;;9.43;75.08
61086;BME280;46967;48.876;2.136;2023-04-09T08:16:18;102106.53;;;9.54;74.83
61086;BME280;46967;48.876;2.136;2023-04-09T08:18:43;102106.47;;;9.68;74.10
61086;BME280;46967;48.876;2.136;2023-04-09T08:21:09;102094.31;;;9.76;73.74
61086;BME280;46967;48.876;2.136;2023-04-09T08:23:35;102101.16;;;9.91;73.69
61086;BME280;46967;48.876;2.136;2023-04-09T08:26:01;102094.19;;;10.01;73.57
61086;BME280;46967;48.876;2.136;2023-04-09T08:28:27;102087.13;;;10.19;74.25
61086;BME280;46967;48.876;2.136;2023-04-09T08:30:52;102092.19;;;10.37;73.86
61086;BME280;46967;48.876;2.136;2023-04-09T08:33:18;102094.75;;;10.43;72.97
61086;BME280;46967;48.876;2.136;2023-04-09T08:35:43;102091.22;;;10.52;71.75
61086;BME280;46967;48.876;2.136;2023-04-09T08:38:09;102091.97;;;10.65;71.86
61086;BME280;46967;48.876;2.136;2023-04-09T08:40:35;102085.75;;;10.80;71.80
61086;BME280;46967;48.876;2.136;2023-04-09T08:43:04;102077.78;;;10.95;71.63
61086;BME280;46967;48.876;2.136;2023-04-09T08:45:33;102081.88;;;11.15;71.10
61086;BME280;46967;48.876;2.136;2023-04-09T08:47:58;102084.38;;;11.24;71.22
61086;BME280;46967;48.876;2.136;2023-04-09T08:50:25;102077.31;;;11.35;69.88
61086;BME280;46967;48.876;2.136;2023-04-09T08:52:51;102071.94;;;11.48;69.80
61086;BME280;46967;48.876;2.136;2023-04-09T08:55:17;102072.69;;;11.57;69.85
61086;BME280;46967;48.876;2.136;2023-04-09T08:57:42;102074.13;;;11.78;70.14
61086;BME280;46967;48.876;2.136;2023-04-09T09:00:08;102068.66;;;11.97;68.31
61086;BME280;46967;48.876;2.136;2023-04-09T09:02:34;102071.88;;;12.13;67.81
61086;BME280;46967;48.876;2.136;2023-04-09T09:04:59;102064.75;;;12.24;66.26
61086;BME280;46967;48.876;2.136;2023-04-09T09:07:29;102055.03;;;12.37;66.32
61086;BME280;46967;48.876;2.136;2023-04-09T09:09:58;102060.78;;;12.55;66.97
61086;BME280;46967;48.876;2.136;2023-04-09T09:12:34;102059.63;;;12.69;65.75
61086;BME280;46967;48.876;2.136;2023-04-09T09:15:00;102050.69;;;12.83;64.66
61086;BME280;46967;48.876;2.136;2023-04-09T09:17:25;102052.84;;;13.06;66.11
61086;BME280;46967;48.876;2.136;2023-04-09T09:19:51;102050.00;;;13.18;65.45
61086;BME280;46967;48.876;2.136;2023-04-09T09:22:16;102053.41;;;13.20;64.92
61086;BME280;46967;48.876;2.136;2023-04-09T09:24:48;102049.03;;;13.22;63.30
61086;BME280;46967;48.876;2.136;2023-04-09T09:27:30;102037.53;;;13.34;63.21
61086;BME280;46967;48.876;2.136;2023-04-09T09:30:01;102043.41;;;13.43;62.57
61086;BME280;46967;48.876;2.136;2023-04-09T09:32:28;102035.91;;;13.68;64.22
61086;BME280;46967;48.876;2.136;2023-04-09T09:34:58;102037.06;;;13.92;63.49
61086;BME280;46967;48.876;2.136;2023-04-09T09:37:27;102021.28;;;13.97;61.04
61086;BME280;46967;48.876;2.136;2023-04-09T09:39:53;102020.84;;;14.15;61.77
61086;BME280;46967;48.876;2.136;2023-04-09T09:42:19;102025.94;;;14.20;59.98
61086;BME280;46967;48.876;2.136;2023-04-09T09:44:44;102022.16;;;14.31;58.49
61086;BME280;46967;48.876;2.136;2023-04-09T09:47:11;102018.84;;;14.58;59.91
61086;BME280;46967;48.876;2.136;2023-04-09T09:49:37;102020.00;;;14.80;59.51
61086;BME280;46967;48.876;2.136;2023-04-09T09:52:08;102024.31;;;15.11;59.84
61086;BME280;46967;48.876;2.136;2023-04-09T09:54:40;102011.13;;;15.16;54.84
61086;BME280;46967;48.876;2.136;2023-04-09T09:57:08;102018.75;;;15.24;55.32
61086;BME280;46967;48.876;2.136;2023-04-09T09:59:36;102018.47;;;15.33;55.05
61086;BME280;46967;48.876;2.136;2023-04-09T10:02:05;102009.97;;;15.54;56.19
61086;BME280;46967;48.876;2.136;2023-04-09T10:04:34;102010.53;;;15.64;53.74
61086;BME280;46967;48.876;2.136;2023-04-09T10:07:03;102006.09;;;15.66;54.36
61086;BME280;46967;48.876;2.136;2023-04-09T10:09:29;102003.56;;;15.91;54.61
61086;BME280;46967;48.876;2.136;2023-04-09T10:11:56;102001.00;;;15.90;54.32
61086;BME280;46967;48.876;2.136;2023-04-09T10:14:23;101995.94;;;16.10;52.68
61086;BME280;46967;48.876;2.136;2023-04-09T10:16:50;101993.66;;;16.26;52.64
61086;BME280;46967;48.876;2.136;2023-04-09T10:19:15;101994.81;;;16.43;53.12
61086;BME280;46967;48.876;2.136;2023-04-09T10:24:17;101988.47;;;16.74;50.73
61086;BME280;46967;48.876;2.136;2023-04-09T10:26:43;101980.22;;;16.84;51.19
61086;BME280;46967;48.876;2.136;2023-04-09T10:29:13;101984.56;;;16.86;50.58
61086;BME280;46967;48.876;2.136;2023-04-09T10:32:04;101977.91;;;17.00;47.32
61086;BME280;46967;48.876;2.136;2023-04-09T10:34:43;101980.06;;;16.89;48.39
61086;BME280;46967;48.876;2.136;2023-04-09T10:37:14;101974.78;;;17.13;49.38
61086;BME280;46967;48.876;2.136;2023-04-09T10:39:43;101979.38;;;17.30;47.84
61086;BME280;46967;48.876;2.136;2023-04-09T10:42:21;101970.34;;;17.37;46.76
61086;BME280;46967;48.876;2.136;2023-04-09T10:45:12;101968.03;;;17.29;46.27
61086;BME280;46967;48.876;2.136;2023-04-09T10:47:39;101965.63;;;17.01;47.08
61086;BME280;46967;48.876;2.136;2023-04-09T10:50:31;101974.25;;;17.27;46.75
61086;BME280;46967;48.876;2.136;2023-04-09T10:52:57;101967.91;;;17.32;46.45
61086;BME280;46967;48.876;2.136;2023-04-09T10:55:34;101974.84;;;16.89;46.22
61086;BME280;46967;48.876;2.136;2023-04-09T10:58:05;101968.06;;;16.58;46.54
61086;BME280;46967;48.876;2.136;2023-04-09T11:00:35;101968.19;;;16.79;46.42
61086;BME280;46967;48.876;2.136;2023-04-09T11:05:34;101968.88;;;17.52;45.79
61086;BME280;46967;48.876;2.136;2023-04-09T11:08:07;101967.19;;;17.07;44.35
61086;BME280;46967;48.876;2.136;2023-04-09T11:10:37;101969.38;;;16.94;44.71
61086;BME280;46967;48.876;2.136;2023-04-09T11:13:03;101961.75;;;16.64;45.16
61086;BME280;46967;48.876;2.136;2023-04-09T11:15:30;101957.56;;;16.35;45.83
61086;BME280;46967;48.876;2.136;2023-04-09T11:17:55;101955.22;;;16.27;46.98
61086;BME280;46967;48.876;2.136;2023-04-09T11:20:23;101948.28;;;16.01;46.51
61086;BME280;46967;48.876;2.136;2023-04-09T11:22:51;101942.63;;;15.88;46.31
61086;BME280;46967;48.876;2.136;2023-04-09T11:25:20;101940.94;;;15.85;47.09
61086;BME280;46967;48.876;2.136;2023-04-09T11:27:46;101938.81;;;16.22;46.79
61086;BME280;46967;48.876;2.136;2023-04-09T11:30:12;101943.25;;;16.20;47.15
61086;BME280;46967;48.876;2.136;2023-04-09T11:32:38;101937.22;;;16.41;45.98
61086;BME280;46967;48.876;2.136;2023-04-09T11:35:04;101939.72;;;16.44;45.97
61086;BME280;46967;48.876;2.136;2023-04-09T11:37:29;101947.13;;;16.33;45.81
61086;BME280;46967;48.876;2.136;2023-04-09T11:39:55;101939.38;;;16.30;46.66
61086;BME280;46967;48.876;2.136;2023-04-09T11:42:22;101935.19;;;16.26;46.68
61086;BME280;46967;48.876;2.136;2023-04-09T11:44:49;101936.78;;;16.54;46.18
61086;BME280;46967;48.876;2.136;2023-04-09T11:47:15;101935.31;;;16.94;45.20
61086;BME280;46967;48.876;2.136;2023-04-09T11:49:41;101936.91;;;17.42;44.81
61086;BME280;46967;48.876;2.136;2023-04-09T11:52:07;101936.84;;;17.86;43.58
61086;BME280;46967;48.876;2.136;2023-04-09T11:54:33;101936.56;;;18.34;43.73
61086;BME280;46967;48.876;2.136;2023-04-09T11:56:59;101932.25;;;18.71;42.65
61086;BME280;46967;48.876;2.136;2023-04-09T11:59:26;101941.53;;;18.98;42.94
61086;BME280;46967;48.876;2.136;2023-04-09T12:01:51;101939.25;;;19.10;40.45
61086;BME280;46967;48.876;2.136;2023-04-09T12:04:20;101931.63;;;19.04;39.42
61086;BME280;46967;48.876;2.136;2023-04-09T12:06:45;101932.59;;;19.20;38.36
61086;BME280;46967;48.876;2.136;2023-04-09T12:09:11;101930.06;;;18.99;39.88
61086;BME280;46967;48.876;2.136;2023-04-09T12:11:37;101934.03;;;18.70;40.78
61086;BME280;46967;48.876;2.136;2023-04-09T12:14:11;101936.13;;;18.24;41.34
61086;BME280;46967;48.876;2.136;2023-04-09T12:16:37;101931.69;;;18.05;41.43
61086;BME280;46967;48.876;2.136;2023-04-09T12:19:06;101926.84;;;18.55;42.30
61086;BME280;46967;48.876;2.136;2023-04-09T12:21:51;101926.03;;;18.92;41.59
61086;BME280;46967;48.876;2.136;2023-04-09T12:24:22;101924.69;;;19.20;39.38
61086;BME280;46967;48.876;2.136;2023-04-09T12:26:48;101928.22;;;19.01;39.63
61086;BME280;46967;48.876;2.136;2023-04-09T12:29:15;101919.91;;;18.92;39.64
61086;BME280;46967;48.876;2.136;2023-04-09T12:31:41;101919.72;;;18.38;40.15
61086;BME280;46967;48.876;2.136;2023-04-09T12:34:07;101916.03;;;18.23;39.52
61086;BME280;46967;48.876;2.136;2023-04-09T12:36:32;101913.28;;;18.05;40.43
61086;BME280;46967;48.876;2.136;2023-04-09T12:38:57;101910.53;;;18.08;40.95
61086;BME280;46967;48.876;2.136;2023-04-09T12:41:23;101913.47;;;17.80;41.97
61086;BME280;46967;48.876;2.136;2023-04-09T12:43:49;101906.22;;;17.65;41.87
61086;BME280;46967;48.876;2.136;2023-04-09T12:46:14;101898.16;;;18.10;42.10
61086;BME280;46967;48.876;2.136;2023-04-09T12:48:40;101899.88;;;18.70;40.86
61086;BME280;46967;48.876;2.136;2023-04-09T12:51:05;101899.53;;;18.97;39.06
61086;BME280;46967;48.876;2.136;2023-04-09T12:53:31;101905.13;;;19.08;39.53
61086;BME280;46967;48.876;2.136;2023-04-09T12:55:57;101887.88;;;19.37;40.09
61086;BME280;46967;48.876;2.136;2023-04-09T12:58:22;101889.91;;;19.67;38.52
61086;BME280;46967;48.876;2.136;2023-04-09T13:00:48;101879.66;;;19.96;39.51
61086;BME280;46967;48.876;2.136;2023-04-09T13:03:13;101876.63;;;20.04;38.49
61086;BME280;46967;48.876;2.136;2023-04-09T13:05:41;101876.53;;;20.39;38.55
61086;BME280;46967;48.876;2.136;2023-04-09T13:08:06;101869.22;;;20.44;38.08
61086;BME280;46967;48.876;2.136;2023-04-09T13:10:32;101866.91;;;20.54;37.64
61086;BME280;46967;48.876;2.136;2023-04-09T13:12:57;101861.00;;;20.66;37.09
61086;BME280;46967;48.876;2.136;2023-04-09T13:15:23;101860.25;;;20.64;37.88